sensor_id;sensor_type;location;lat;lon;timestamp;P1;durP1;ratioP1;P2;durP2;ratioP2
20567;SDS011;10442;49.932;11.592;2024-02-14T00:00:40;3.73;;;3.40;;
20567;SDS011;10442;49.932;11.592;2024-02-14T00:03:08;4.73;;;3.33;;
20567;SDS011;10442;49.932;11.592;2024-02-14T00:05:37;4.47;;;3.47;;
20567;SDS011;10442;49.932;11.592;2024-02-14T00:08:05;8.23;;;4.27;;
20567;SDS011;10442;49.932;11.592;2024-02-14T00:10:34;3.73;;;3.30;;
20567;SDS011;10442;49.932;11.592;2024-02-14T00:13:02;3.97;;;3.60;;
20567;SDS011;10442;49.932;11.592;2024-02-14T00:15:29;4.27;;;3.87;;
20567;SDS011;10442;49.932;11.592;2024-02-14T00:17:57;4.17;;;3.53;;
20567;SDS011;10442;49.932;11.592;2024-02-14T00:20:24;5.70;;;4.77;;
20567;SDS011;10442;49.932;11.592;2024-02-14T00:22:54;4.83;;;4.37;;
20567;SDS011;10442;49.932;11.592;2024-02-14T00:25:22;4.33;;;3.93;;
20567;SDS011;10442;49.932;11.592;2024-02-14T00:27:51;4.40;;;4.00;;
20567;SDS011;10442;49.932;11.592;2024-02-14T00:30:18;3.87;;;3.47;;
20567;SDS011;10442;49.932;11.592;2024-02-14T00:32:46;3.23;;;2.93;;
20567;SDS011;10442;49.932;11.592;2024-02-14T00:35:14;4.10;;;3.70;;
20567;SDS011;10442;49.932;11.592;2024-02-14T00:37:42;3.67;;;3.37;;
20567;SDS011;10442;49.932;11.592;2024-02-14T00:40:10;7.47;;;4.17;;
20567;SDS011;10442;49.932;11.592;2024-02-14T00:42:38;3.40;;;3.10;;
20567;SDS011;10442;49.932;11.592;2024-02-14T00:45:06;6.00;;;3.43;;
20567;SDS011;10442;49.932;11.592;2024-02-14T00:47:39;7.43;;;3.40;;
20567;SDS011;10442;49.932;11.592;2024-02-14T00:50:07;3.97;;;3.07;;
20567;SDS011;10442;49.932;11.592;2024-02-14T00:52:34;4.40;;;3.37;;
20567;SDS011;10442;49.932;11.592;2024-02-14T00:55:02;4.57;;;4.17;;
20567;SDS011;10442;49.932;11.592;2024-02-14T00:57:31;3.97;;;3.53;;
20567;SDS011;10442;49.932;11.592;2024-02-14T00:59:59;4.40;;;3.97;;
20567;SDS011;10442;49.932;11.592;2024-02-14T01:02:28;4.10;;;3.70;;
20567;SDS011;10442;49.932;11.592;2024-02-14T01:04:57;3.30;;;3.00;;
20567;SDS011;10442;49.932;11.592;2024-02-14T01:07:25;4.13;;;3.73;;
20567;SDS011;10442;49.932;11.592;2024-02-14T01:09:53;4.00;;;3.60;;
20567;SDS011;10442;49.932;11.592;2024-02-14T01:12:20;3.90;;;3.57;;
20567;SDS011;10442;49.932;11.592;2024-02-14T01:14:48;3.33;;;3.03;;
20567;SDS011;10442;49.932;11.592;2024-02-14T01:17:16;7.53;;;3.97;;
20567;SDS011;10442;49.932;11.592;2024-02-14T01:19:43;4.40;;;3.60;;
20567;SDS011;10442;49.932;11.592;2024-02-14T01:22:11;3.63;;;3.27;;
20567;SDS011;10442;49.932;11.592;2024-02-14T01:24:38;3.40;;;3.10;;
20567;SDS011;10442;49.932;11.592;2024-02-14T01:27:06;4.43;;;3.87;;
20567;SDS011;10442;49.932;11.592;2024-02-14T01:29:35;3.80;;;3.47;;
20567;SDS011;10442;49.932;11.592;2024-02-14T01:32:03;3.87;;;3.57;;
20567;SDS011;10442;49.932;11.592;2024-02-14T01:34:31;4.90;;;3.63;;
20567;SDS011;10442;49.932;11.592;2024-02-14T01:36:59;4.27;;;3.87;;
20567;SDS011;10442;49.932;11.592;2024-02-14T01:39:26;3.90;;;3.53;;
20567;SDS011;10442;49.932;11.592;2024-02-14T01:41:54;4.00;;;3.70;;
20567;SDS011;10442;49.932;11.592;2024-02-14T01:44:22;3.53;;;3.23;;
20567;SDS011;10442;49.932;11.592;2024-02-14T01:46:50;4.97;;;3.50;;
20567;SDS011;10442;49.932;11.592;2024-02-14T01:49:19;4.43;;;4.03;;
20567;SDS011;10442;49.932;11.592;2024-02-14T01:51:48;4.63;;;4.17;;
20567;SDS011;10442;49.932;11.592;2024-02-14T01:54:16;3.70;;;3.50;;
20567;SDS011;10442;49.932;11.592;2024-02-14T01:56:45;3.70;;;3.40;;
20567;SDS011;10442;49.932;11.592;2024-02-14T01:59:13;4.30;;;3.90;;
20567;SDS011;10442;49.932;11.592;2024-02-14T02:01:42;5.70;;;3.43;;
20567;SDS011;10442;49.932;11.592;2024-02-14T02:04:10;4.03;;;3.73;;
20567;SDS011;10442;49.932;11.592;2024-02-14T02:06:38;4.40;;;3.70;;
20567;SDS011;10442;49.932;11.592;2024-02-14T02:09:08;5.07;;;3.83;;
20567;SDS011;10442;49.932;11.592;2024-02-14T02:12:10;4.33;;;3.93;;
20567;SDS011;10442;49.932;11.592;2024-02-14T02:14:34;3.60;;;3.30;;
20567;SDS011;10442;49.932;11.592;2024-02-14T02:17:02;5.07;;;4.17;;
20567;SDS011;10442;49.932;11.592;2024-02-14T02:19:35;9.47;;;3.57;;
20567;SDS011;10442;49.932;11.592;2024-02-14T02:22:03;4.53;;;4.10;;
20567;SDS011;10442;49.932;11.592;2024-02-14T02:24:31;4.03;;;3.73;;
20567;SDS011;10442;49.932;11.592;2024-02-14T02:26:58;2.93;;;2.63;;
20567;SDS011;10442;49.932;11.592;2024-02-14T02:29:26;4.20;;;3.67;;
20567;SDS011;10442;49.932;11.592;2024-02-14T02:31:54;4.57;;;3.93;;
20567;SDS011;10442;49.932;11.592;2024-02-14T02:34:22;4.63;;;4.23;;
20567;SDS011;10442;49.932;11.592;2024-02-14T02:36:50;5.80;;;4.07;;
20567;SDS011;10442;49.932;11.592;2024-02-14T02:39:18;4.27;;;3.97;;
20567;SDS011;10442;49.932;11.592;2024-02-14T02:41:47;4.83;;;4.10;;
20567;SDS011;10442;49.932;11.592;2024-02-14T02:44:17;7.97;;;4.13;;
20567;SDS011;10442;49.932;11.592;2024-02-14T02:46:44;4.57;;;3.73;;
20567;SDS011;10442;49.932;11.592;2024-02-14T02:49:12;3.90;;;3.60;;
20567;SDS011;10442;49.932;11.592;2024-02-14T02:51:41;4.43;;;3.60;;
20567;SDS011;10442;49.932;11.592;2024-02-14T02:54:08;4.23;;;3.83;;
20567;SDS011;10442;49.932;11.592;2024-02-14T02:56:39;3.63;;;3.33;;
20567;SDS011;10442;49.932;11.592;2024-02-14T02:59:08;3.40;;;3.10;;
20567;SDS011;10442;49.932;11.592;2024-02-14T03:01:37;3.30;;;3.00;;
20567;SDS011;10442;49.932;11.592;2024-02-14T03:04:05;6.53;;;4.23;;
20567;SDS011;10442;49.932;11.592;2024-02-14T03:06:33;2.57;;;2.37;;
20567;SDS011;10442;49.932;11.592;2024-02-14T03:09:01;2.77;;;2.57;;
20567;SDS011;10442;49.932;11.592;2024-02-14T03:11:30;3.47;;;3.17;;
20567;SDS011;10442;49.932;11.592;2024-02-14T03:13:57;4.97;;;3.30;;
20567;SDS011;10442;49.932;11.592;2024-02-14T03:16:25;3.03;;;2.73;;
20567;SDS011;10442;49.932;11.592;2024-02-14T03:18:53;4.27;;;3.30;;
20567;SDS011;10442;49.932;11.592;2024-02-14T03:21:21;5.17;;;2.87;;
20567;SDS011;10442;49.932;11.592;2024-02-14T03:23:49;5.03;;;2.80;;
20567;SDS011;10442;49.932;11.592;2024-02-14T03:26:16;3.93;;;3.20;;
20567;SDS011;10442;49.932;11.592;2024-02-14T03:28:44;4.50;;;2.73;;
20567;SDS011;10442;49.932;11.592;2024-02-14T03:31:13;3.27;;;2.97;;
20567;SDS011;10442;49.932;11.592;2024-02-14T03:33:42;3.07;;;2.77;;
20567;SDS011;10442;49.932;11.592;2024-02-14T03:36:11;4.30;;;3.03;;
20567;SDS011;10442;49.932;11.592;2024-02-14T03:38:39;2.60;;;2.40;;
20567;SDS011;10442;49.932;11.592;2024-02-14T03:41:08;2.77;;;2.57;;
20567;SDS011;10442;49.932;11.592;2024-02-14T03:43:35;3.17;;;2.80;;
20567;SDS011;10442;49.932;11.592;2024-02-14T03:46:03;3.77;;;2.93;;
20567;SDS011;10442;49.932;11.592;2024-02-14T03:48:33;6.20;;;3.10;;
20567;SDS011;10442;49.932;11.592;2024-02-14T03:51:02;2.93;;;2.60;;
20567;SDS011;10442;49.932;11.592;2024-02-14T03:53:30;3.13;;;2.83;;
20567;SDS011;10442;49.932;11.592;2024-02-14T03:56:00;3.00;;;2.70;;
20567;SDS011;10442;49.932;11.592;2024-02-14T03:58:28;2.70;;;2.50;;
20567;SDS011;10442;49.932;11.592;2024-02-14T04:00:56;3.83;;;2.50;;
20567;SDS011;10442;49.932;11.592;2024-02-14T04:03:23;4.53;;;3.00;;
20567;SDS011;10442;49.932;11.592;2024-02-14T04:05:51;2.53;;;2.33;;
20567;SDS011;10442;49.932;11.592;2024-02-14T04:08:18;3.00;;;2.80;;
20567;SDS011;10442;49.932;11.592;2024-02-14T04:10:46;2.77;;;2.20;;
20567;SDS011;10442;49.932;11.592;2024-02-14T04:13:16;3.73;;;3.23;;
20567;SDS011;10442;49.932;11.592;2024-02-14T04:15:43;3.60;;;2.60;;
20567;SDS011;10442;49.932;11.592;2024-02-14T04:18:11;2.37;;;2.17;;
20567;SDS011;10442;49.932;11.592;2024-02-14T04:20:39;2.77;;;2.50;;
20567;SDS011;10442;49.932;11.592;2024-02-14T04:23:08;2.37;;;2.17;;
20567;SDS011;10442;49.932;11.592;2024-02-14T04:25:35;3.17;;;2.87;;
20567;SDS011;10442;49.932;11.592;2024-02-14T04:28:04;3.37;;;2.57;;
20567;SDS011;10442;49.932;11.592;2024-02-14T04:30:32;3.13;;;2.83;;
20567;SDS011;10442;49.932;11.592;2024-02-14T04:33:00;2.60;;;2.40;;
20567;SDS011;10442;49.932;11.592;2024-02-14T04:35:28;3.00;;;2.50;;
20567;SDS011;10442;49.932;11.592;2024-02-14T04:37:57;2.60;;;2.40;;
20567;SDS011;10442;49.932;11.592;2024-02-14T04:40:26;2.60;;;2.40;;
20567;SDS011;10442;49.932;11.592;2024-02-14T04:42:53;3.93;;;2.43;;
20567;SDS011;10442;49.932;11.592;2024-02-14T04:45:22;1.97;;;1.87;;
20567;SDS011;10442;49.932;11.592;2024-02-14T04:47:50;3.20;;;2.10;;
20567;SDS011;10442;49.932;11.592;2024-02-14T04:50:17;2.33;;;2.17;;
20567;SDS011;10442;49.932;11.592;2024-02-14T04:52:45;2.03;;;1.80;;
20567;SDS011;10442;49.932;11.592;2024-02-14T04:55:14;3.80;;;2.07;;
20567;SDS011;10442;49.932;11.592;2024-02-14T04:57:42;2.13;;;1.93;;
20567;SDS011;10442;49.932;11.592;2024-02-14T05:00:10;3.03;;;1.90;;
20567;SDS011;10442;49.932;11.592;2024-02-14T05:02:38;1.97;;;1.73;;
20567;SDS011;10442;49.932;11.592;2024-02-14T05:05:05;3.97;;;1.90;;
20567;SDS011;10442;49.932;11.592;2024-02-14T05:07:35;1.73;;;1.40;;
20567;SDS011;10442;49.932;11.592;2024-02-14T05:10:05;1.90;;;1.80;;
20567;SDS011;10442;49.932;11.592;2024-02-14T05:12:33;2.13;;;2.03;;
20567;SDS011;10442;49.932;11.592;2024-02-14T05:15:01;4.00;;;2.53;;
20567;SDS011;10442;49.932;11.592;2024-02-14T05:17:31;1.90;;;1.80;;
20567;SDS011;10442;49.932;11.592;2024-02-14T05:19:59;2.13;;;1.97;;
20567;SDS011;10442;49.932;11.592;2024-02-14T05:22:26;6.50;;;1.95;;
20567;SDS011;10442;49.932;11.592;2024-02-14T05:24:54;2.17;;;2.08;;
20567;SDS011;10442;49.932;11.592;2024-02-14T05:27:21;3.92;;;1.90;;
20567;SDS011;10442;49.932;11.592;2024-02-14T05:29:49;6.53;;;2.80;;
20567;SDS011;10442;49.932;11.592;2024-02-14T05:32:18;2.72;;;2.38;;
20567;SDS011;10442;49.932;11.592;2024-02-14T05:34:48;1.60;;;1.50;;
20567;SDS011;10442;49.932;11.592;2024-02-14T05:37:17;3.67;;;1.90;;
20567;SDS011;10442;49.932;11.592;2024-02-14T05:39:44;1.98;;;1.67;;
20567;SDS011;10442;49.932;11.592;2024-02-14T05:42:13;1.95;;;1.85;;
20567;SDS011;10442;49.932;11.592;2024-02-14T05:44:43;1.70;;;1.60;;
20567;SDS011;10442;49.932;11.592;2024-02-14T05:47:11;3.75;;;2.25;;
20567;SDS011;10442;49.932;11.592;2024-02-14T05:49:39;2.42;;;2.17;;
20567;SDS011;10442;49.932;11.592;2024-02-14T05:52:09;2.28;;;2.08;;
20567;SDS011;10442;49.932;11.592;2024-02-14T05:54:36;3.65;;;2.33;;
20567;SDS011;10442;49.932;11.592;2024-02-14T05:57:04;2.88;;;2.67;;
20567;SDS011;10442;49.932;11.592;2024-02-14T05:59:33;2.50;;;1.90;;
20567;SDS011;10442;49.932;11.592;2024-02-14T06:02:02;4.97;;;2.47;;
20567;SDS011;10442;49.932;11.592;2024-02-14T06:04:34;2.08;;;1.88;;
20567;SDS011;10442;49.932;11.592;2024-02-14T06:07:01;4.03;;;2.10;;
20567;SDS011;10442;49.932;11.592;2024-02-14T06:09:29;1.90;;;1.80;;
20567;SDS011;10442;49.932;11.592;2024-02-14T06:11:57;1.80;;;1.70;;
20567;SDS011;10442;49.932;11.592;2024-02-14T06:14:25;1.75;;;1.65;;
20567;SDS011;10442;49.932;11.592;2024-02-14T06:16:52;4.25;;;1.92;;
20567;SDS011;10442;49.932;11.592;2024-02-14T06:19:19;3.43;;;3.13;;
20567;SDS011;10442;49.932;11.592;2024-02-14T06:21:47;3.22;;;2.88;;
20567;SDS011;10442;49.932;11.592;2024-02-14T06:24:16;4.47;;;1.90;;
20567;SDS011;10442;49.932;11.592;2024-02-14T06:26:47;5.40;;;2.25;;
20567;SDS011;10442;49.932;11.592;2024-02-14T06:29:15;14.35;;;2.30;;
20567;SDS011;10442;49.932;11.592;2024-02-14T06:31:42;2.50;;;2.30;;
20567;SDS011;10442;49.932;11.592;2024-02-14T06:34:10;8.93;;;2.28;;
20567;SDS011;10442;49.932;11.592;2024-02-14T06:36:38;3.65;;;2.35;;
20567;SDS011;10442;49.932;11.592;2024-02-14T06:39:06;13.23;;;3.40;;
20567;SDS011;10442;49.932;11.592;2024-02-14T06:41:36;3.20;;;2.22;;
20567;SDS011;10442;49.932;11.592;2024-02-14T06:44:08;9.55;;;4.05;;
20567;SDS011;10442;49.932;11.592;2024-02-14T06:46:35;2.30;;;2.08;;
20567;SDS011;10442;49.932;11.592;2024-02-14T06:49:04;3.50;;;2.85;;
20567;SDS011;10442;49.932;11.592;2024-02-14T06:51:32;3.25;;;2.95;;
20567;SDS011;10442;49.932;11.592;2024-02-14T06:54:01;3.45;;;2.90;;
20567;SDS011;10442;49.932;11.592;2024-02-14T06:56:29;3.80;;;3.40;;
20567;SDS011;10442;49.932;11.592;2024-02-14T06:58:57;2.25;;;2.05;;
20567;SDS011;10442;49.932;11.592;2024-02-14T07:01:27;2.25;;;2.05;;
20567;SDS011;10442;49.932;11.592;2024-02-14T07:03:56;2.97;;;2.65;;
20567;SDS011;10442;49.932;11.592;2024-02-14T07:06:27;4.22;;;2.50;;
20567;SDS011;10442;49.932;11.592;2024-02-14T07:08:55;3.95;;;2.65;;
20567;SDS011;10442;49.932;11.592;2024-02-14T07:11:25;5.95;;;2.88;;
20567;SDS011;10442;49.932;11.592;2024-02-14T07:13:53;3.63;;;2.47;;
20567;SDS011;10442;49.932;11.592;2024-02-14T07:16:20;7.13;;;3.17;;
20567;SDS011;10442;49.932;11.592;2024-02-14T07:18:49;2.47;;;2.28;;
20567;SDS011;10442;49.932;11.592;2024-02-14T07:21:17;2.80;;;2.60;;
20567;SDS011;10442;49.932;11.592;2024-02-14T07:23:44;2.63;;;2.42;;
20567;SDS011;10442;49.932;11.592;2024-02-14T07:26:12;3.20;;;2.80;;
20567;SDS011;10442;49.932;11.592;2024-02-14T07:28:40;3.28;;;2.25;;
20567;SDS011;10442;49.932;11.592;2024-02-14T07:31:08;3.83;;;2.75;;
20567;SDS011;10442;49.932;11.592;2024-02-14T07:33:35;4.10;;;2.65;;
20567;SDS011;10442;49.932;11.592;2024-02-14T07:36:04;4.97;;;2.83;;
20567;SDS011;10442;49.932;11.592;2024-02-14T07:38:31;3.70;;;2.40;;
20567;SDS011;10442;49.932;11.592;2024-02-14T07:41:02;3.92;;;2.50;;
20567;SDS011;10442;49.932;11.592;2024-02-14T07:43:29;4.18;;;2.92;;
20567;SDS011;10442;49.932;11.592;2024-02-14T07:45:57;4.18;;;3.42;;
20567;SDS011;10442;49.932;11.592;2024-02-14T07:48:25;3.13;;;2.88;;
20567;SDS011;10442;49.932;11.592;2024-02-14T07:50:55;2.78;;;2.58;;
20567;SDS011;10442;49.932;11.592;2024-02-14T07:53:23;3.42;;;3.13;;
20567;SDS011;10442;49.932;11.592;2024-02-14T07:55:51;5.57;;;2.30;;
20567;SDS011;10442;49.932;11.592;2024-02-14T07:58:21;2.88;;;2.67;;
20567;SDS011;10442;49.932;11.592;2024-02-14T08:00:48;6.53;;;2.95;;
20567;SDS011;10442;49.932;11.592;2024-02-14T08:03:17;2.72;;;2.45;;
20567;SDS011;10442;49.932;11.592;2024-02-14T08:05:46;3.45;;;2.78;;
20567;SDS011;10442;49.932;11.592;2024-02-14T08:08:13;3.10;;;2.90;;
20567;SDS011;10442;49.932;11.592;2024-02-14T08:10:41;4.25;;;2.35;;
20567;SDS011;10442;49.932;11.592;2024-02-14T08:13:10;3.42;;;2.28;;
20567;SDS011;10442;49.932;11.592;2024-02-14T08:15:44;4.43;;;2.83;;
20567;SDS011;10442;49.932;11.592;2024-02-14T08:18:12;4.30;;;2.83;;
20567;SDS011;10442;49.932;11.592;2024-02-14T08:20:43;3.00;;;2.50;;
20567;SDS011;10442;49.932;11.592;2024-02-14T08:23:11;4.88;;;3.17;;
20567;SDS011;10442;49.932;11.592;2024-02-14T08:25:39;4.32;;;2.60;;
20567;SDS011;10442;49.932;11.592;2024-02-14T08:28:09;6.40;;;3.13;;
20567;SDS011;10442;49.932;11.592;2024-02-14T08:30:37;5.80;;;3.90;;
20567;SDS011;10442;49.932;11.592;2024-02-14T08:33:04;6.55;;;3.53;;
20567;SDS011;10442;49.932;11.592;2024-02-14T08:35:34;3.40;;;3.10;;
20567;SDS011;10442;49.932;11.592;2024-02-14T08:38:09;4.15;;;2.55;;
20567;SDS011;10442;49.932;11.592;2024-02-14T08:40:37;4.05;;;3.25;;
20567;SDS011;10442;49.932;11.592;2024-02-14T08:43:06;2.83;;;2.55;;
20567;SDS011;10442;49.932;11.592;2024-02-14T08:45:36;3.50;;;2.78;;
20567;SDS011;10442;49.932;11.592;2024-02-14T08:48:04;4.57;;;2.90;;
20567;SDS011;10442;49.932;11.592;2024-02-14T08:50:34;3.97;;;2.97;;
20567;SDS011;10442;49.932;11.592;2024-02-14T08:53:02;3.08;;;2.80;;
20567;SDS011;10442;49.932;11.592;2024-02-14T08:55:31;3.65;;;2.42;;
20567;SDS011;10442;49.932;11.592;2024-02-14T08:58:00;3.90;;;2.53;;
20567;SDS011;10442;49.932;11.592;2024-02-14T09:00:29;4.18;;;2.20;;
20567;SDS011;10442;49.932;11.592;2024-02-14T09:02:58;3.85;;;2.42;;
20567;SDS011;10442;49.932;11.592;2024-02-14T09:05:27;3.85;;;1.83;;
20567;SDS011;10442;49.932;11.592;2024-02-14T09:07:57;2.72;;;2.50;;
20567;SDS011;10442;49.932;11.592;2024-02-14T09:10:26;3.38;;;2.42;;
20567;SDS011;10442;49.932;11.592;2024-02-14T09:12:56;2.05;;;1.88;;
20567;SDS011;10442;49.932;11.592;2024-02-14T09:15:24;3.30;;;2.05;;
20567;SDS011;10442;49.932;11.592;2024-02-14T09:17:54;4.93;;;2.38;;
20567;SDS011;10442;49.932;11.592;2024-02-14T09:20:24;2.85;;;2.40;;
20567;SDS011;10442;49.932;11.592;2024-02-14T09:22:53;3.75;;;2.42;;
20567;SDS011;10442;49.932;11.592;2024-02-14T09:25:22;2.38;;;2.13;;
20567;SDS011;10442;49.932;11.592;2024-02-14T09:27:51;5.15;;;2.13;;
20567;SDS011;10442;49.932;11.592;2024-02-14T09:30:20;2.70;;;2.03;;
20567;SDS011;10442;49.932;11.592;2024-02-14T09:33:04;5.45;;;2.47;;
20567;SDS011;10442;49.932;11.592;2024-02-14T09:35:33;4.63;;;2.55;;
20567;SDS011;10442;49.932;11.592;2024-02-14T09:38:02;3.15;;;2.85;;
20567;SDS011;10442;49.932;11.592;2024-02-14T09:40:31;2.10;;;1.90;;
20567;SDS011;10442;49.932;11.592;2024-02-14T09:42:58;3.42;;;2.58;;
20567;SDS011;10442;49.932;11.592;2024-02-14T09:45:31;2.50;;;2.22;;
20567;SDS011;10442;49.932;11.592;2024-02-14T09:48:01;5.20;;;3.50;;
20567;SDS011;10442;49.932;11.592;2024-02-14T09:50:31;2.47;;;2.28;;
20567;SDS011;10442;49.932;11.592;2024-02-14T09:53:00;5.07;;;3.95;;
20567;SDS011;10442;49.932;11.592;2024-02-14T09:55:29;4.03;;;3.45;;
20567;SDS011;10442;49.932;11.592;2024-02-14T09:58:00;3.88;;;3.13;;
20567;SDS011;10442;49.932;11.592;2024-02-14T10:00:32;5.43;;;2.75;;
20567;SDS011;10442;49.932;11.592;2024-02-14T10:03:01;2.92;;;2.47;;
20567;SDS011;10442;49.932;11.592;2024-02-14T10:05:30;3.10;;;2.25;;
20567;SDS011;10442;49.932;11.592;2024-02-14T10:07:58;4.90;;;2.80;;
20567;SDS011;10442;49.932;11.592;2024-02-14T10:10:25;5.22;;;3.10;;
20567;SDS011;10442;49.932;11.592;2024-02-14T10:12:56;5.00;;;2.53;;
20567;SDS011;10442;49.932;11.592;2024-02-14T10:15:25;7.20;;;2.58;;
20567;SDS011;10442;49.932;11.592;2024-02-14T10:17:53;3.78;;;2.10;;
20567;SDS011;10442;49.932;11.592;2024-02-14T10:20:21;5.32;;;3.03;;
20567;SDS011;10442;49.932;11.592;2024-02-14T10:22:49;3.10;;;2.50;;
20567;SDS011;10442;49.932;11.592;2024-02-14T10:25:17;5.82;;;3.05;;
20567;SDS011;10442;49.932;11.592;2024-02-14T10:27:45;5.30;;;2.83;;
20567;SDS011;10442;49.932;11.592;2024-02-14T10:30:15;2.13;;;1.88;;
20567;SDS011;10442;49.932;11.592;2024-02-14T10:32:43;4.25;;;2.08;;
20567;SDS011;10442;49.932;11.592;2024-02-14T10:35:16;3.35;;;2.53;;
20567;SDS011;10442;49.932;11.592;2024-02-14T10:37:44;3.55;;;2.38;;
20567;SDS011;10442;49.932;11.592;2024-02-14T10:40:12;6.60;;;5.70;;
20567;SDS011;10442;49.932;11.592;2024-02-14T10:42:41;6.25;;;2.35;;
20567;SDS011;10442;49.932;11.592;2024-02-14T10:45:10;1.92;;;1.70;;
20567;SDS011;10442;49.932;11.592;2024-02-14T10:47:39;1.75;;;1.65;;
20567;SDS011;10442;49.932;11.592;2024-02-14T10:50:11;2.45;;;1.70;;
20567;SDS011;10442;49.932;11.592;2024-02-14T10:52:40;4.93;;;2.25;;
20567;SDS011;10442;49.932;11.592;2024-02-14T10:55:08;6.38;;;2.53;;
20567;SDS011;10442;49.932;11.592;2024-02-14T10:57:38;2.25;;;1.80;;
20567;SDS011;10442;49.932;11.592;2024-02-14T11:00:07;2.13;;;1.92;;
20567;SDS011;10442;49.932;11.592;2024-02-14T11:02:37;3.25;;;1.90;;
20567;SDS011;10442;49.932;11.592;2024-02-14T11:05:11;2.17;;;1.60;;
20567;SDS011;10442;49.932;11.592;2024-02-14T11:07:47;1.85;;;1.75;;
20567;SDS011;10442;49.932;11.592;2024-02-14T11:10:17;2.17;;;1.83;;
20567;SDS011;10442;49.932;11.592;2024-02-14T11:12:47;4.00;;;1.80;;
20567;SDS011;10442;49.932;11.592;2024-02-14T11:15:19;5.53;;;2.72;;
20567;SDS011;10442;49.932;11.592;2024-02-14T11:17:48;2.05;;;1.90;;
20567;SDS011;10442;49.932;11.592;2024-02-14T11:20:20;2.72;;;2.00;;
20567;SDS011;10442;49.932;11.592;2024-02-14T11:23:01;2.40;;;2.20;;
20567;SDS011;10442;49.932;11.592;2024-02-14T11:25:33;4.72;;;2.72;;
20567;SDS011;10442;49.932;11.592;2024-02-14T11:28:23;3.58;;;2.20;;
20567;SDS011;10442;49.932;11.592;2024-02-14T11:31:01;2.90;;;2.17;;
20567;SDS011;10442;49.932;11.592;2024-02-14T11:33:31;4.47;;;2.22;;
20567;SDS011;10442;49.932;11.592;2024-02-14T11:36:06;2.95;;;1.98;;
20567;SDS011;10442;49.932;11.592;2024-02-14T11:38:39;7.18;;;2.58;;
20567;SDS011;10442;49.932;11.592;2024-02-14T11:41:10;3.65;;;2.05;;
20567;SDS011;10442;49.932;11.592;2024-02-14T11:43:37;1.95;;;1.85;;
20567;SDS011;10442;49.932;11.592;2024-02-14T11:46:06;2.00;;;1.88;;
20567;SDS011;10442;49.932;11.592;2024-02-14T11:48:34;2.58;;;2.25;;
20567;SDS011;10442;49.932;11.592;2024-02-14T11:51:04;5.95;;;2.22;;
20567;SDS011;10442;49.932;11.592;2024-02-14T11:53:35;3.15;;;2.85;;
20567;SDS011;10442;49.932;11.592;2024-02-14T11:56:04;4.28;;;2.28;;
20567;SDS011;10442;49.932;11.592;2024-02-14T11:58:35;4.32;;;1.90;;
20567;SDS011;10442;49.932;11.592;2024-02-14T12:01:03;2.25;;;1.98;;
20567;SDS011;10442;49.932;11.592;2024-02-14T12:03:32;2.60;;;1.60;;
20567;SDS011;10442;49.932;11.592;2024-02-14T12:06:02;3.67;;;2.05;;
20567;SDS011;10442;49.932;11.592;2024-02-14T12:08:31;3.17;;;1.42;;
20567;SDS011;10442;49.932;11.592;2024-02-14T12:10:59;3.45;;;2.28;;
20567;SDS011;10442;49.932;11.592;2024-02-14T12:13:26;2.75;;;2.55;;
20567;SDS011;10442;49.932;11.592;2024-02-14T12:16:00;2.85;;;1.98;;
20567;SDS011;10442;49.932;11.592;2024-02-14T12:18:27;2.15;;;1.70;;
20567;SDS011;10442;49.932;11.592;2024-02-14T12:21:05;5.78;;;2.33;;
20567;SDS011;10442;49.932;11.592;2024-02-14T12:23:36;3.88;;;2.35;;
20567;SDS011;10442;49.932;11.592;2024-02-14T12:26:04;2.65;;;2.45;;
20567;SDS011;10442;49.932;11.592;2024-02-14T12:28:32;5.43;;;2.28;;
20567;SDS011;10442;49.932;11.592;2024-02-14T12:30:59;2.78;;;1.95;;
20567;SDS011;10442;49.932;11.592;2024-02-14T12:33:27;3.80;;;1.70;;
20567;SDS011;10442;49.932;11.592;2024-02-14T12:35:57;3.25;;;2.30;;
20567;SDS011;10442;49.932;11.592;2024-02-14T12:38:27;1.70;;;1.60;;
20567;SDS011;10442;49.932;11.592;2024-02-14T12:40:54;2.10;;;2.00;;
20567;SDS011;10442;49.932;11.592;2024-02-14T12:43:22;1.80;;;1.70;;
20567;SDS011;10442;49.932;11.592;2024-02-14T12:45:49;3.35;;;1.75;;
20567;SDS011;10442;49.932;11.592;2024-02-14T12:48:23;2.72;;;2.20;;
20567;SDS011;10442;49.932;11.592;2024-02-14T12:50:55;2.38;;;2.17;;
20567;SDS011;10442;49.932;11.592;2024-02-14T12:53:24;2.17;;;1.95;;
20567;SDS011;10442;49.932;11.592;2024-02-14T12:55:52;1.52;;;1.42;;
20567;SDS011;10442;49.932;11.592;2024-02-14T12:58:21;7.30;;;4.63;;
20567;SDS011;10442;49.932;11.592;2024-02-14T13:00:48;6.38;;;3.22;;
20567;SDS011;10442;49.932;11.592;2024-02-14T13:03:17;3.35;;;1.70;;
20567;SDS011;10442;49.932;11.592;2024-02-14T13:05:46;1.77;;;1.40;;
20567;SDS011;10442;49.932;11.592;2024-02-14T13:08:16;1.80;;;1.70;;
20567;SDS011;10442;49.932;11.592;2024-02-14T13:10:45;1.83;;;1.50;;
20567;SDS011;10442;49.932;11.592;2024-02-14T13:13:12;2.22;;;1.80;;
20567;SDS011;10442;49.932;11.592;2024-02-14T13:15:42;1.40;;;1.30;;
20567;SDS011;10442;49.932;11.592;2024-02-14T13:18:12;2.28;;;1.98;;
20567;SDS011;10442;49.932;11.592;2024-02-14T13:20:42;2.83;;;2.30;;
20567;SDS011;10442;49.932;11.592;2024-02-14T13:23:11;1.83;;;1.67;;
20567;SDS011;10442;49.932;11.592;2024-02-14T13:25:41;3.58;;;2.05;;
20567;SDS011;10442;49.932;11.592;2024-02-14T13:28:10;1.67;;;1.58;;
20567;SDS011;10442;49.932;11.592;2024-02-14T13:30:38;2.65;;;1.83;;
20567;SDS011;10442;49.932;11.592;2024-02-14T13:33:06;2.15;;;2.00;;
20567;SDS011;10442;49.932;11.592;2024-02-14T13:35:34;3.47;;;1.90;;
20567;SDS011;10442;49.932;11.592;2024-02-14T13:38:05;1.98;;;1.77;;
20567;SDS011;10442;49.932;11.592;2024-02-14T13:40:33;2.20;;;1.90;;
20567;SDS011;10442;49.932;11.592;2024-02-14T13:43:02;2.83;;;2.35;;
20567;SDS011;10442;49.932;11.592;2024-02-14T13:45:40;6.28;;;2.05;;
20567;SDS011;10442;49.932;11.592;2024-02-14T13:48:11;3.28;;;1.77;;
20567;SDS011;10442;49.932;11.592;2024-02-14T13:50:40;1.60;;;1.50;;
20567;SDS011;10442;49.932;11.592;2024-02-14T13:53:10;3.20;;;1.77;;
20567;SDS011;10442;49.932;11.592;2024-02-14T13:55:39;2.45;;;2.25;;
20567;SDS011;10442;49.932;11.592;2024-02-14T13:58:07;2.28;;;2.08;;
20567;SDS011;10442;49.932;11.592;2024-02-14T14:00:42;1.88;;;1.65;;
20567;SDS011;10442;49.932;11.592;2024-02-14T14:03:10;3.67;;;2.28;;
20567;SDS011;10442;49.932;11.592;2024-02-14T14:05:39;1.73;;;1.63;;
20567;SDS011;10442;49.932;11.592;2024-02-14T14:08:07;1.63;;;1.52;;
20567;SDS011;10442;49.932;11.592;2024-02-14T14:10:36;2.70;;;1.70;;
20567;SDS011;10442;49.932;11.592;2024-02-14T14:13:04;4.80;;;2.47;;
20567;SDS011;10442;49.932;11.592;2024-02-14T14:15:34;1.63;;;1.30;;
20567;SDS011;10442;49.932;11.592;2024-02-14T14:18:02;2.63;;;2.03;;
20567;SDS011;10442;49.932;11.592;2024-02-14T14:20:30;1.88;;;1.25;;
20567;SDS011;10442;49.932;11.592;2024-02-14T14:22:58;6.20;;;1.85;;
20567;SDS011;10442;49.932;11.592;2024-02-14T14:25:28;1.58;;;1.48;;
20567;SDS011;10442;49.932;11.592;2024-02-14T14:27:58;1.83;;;1.70;;
20567;SDS011;10442;49.932;11.592;2024-02-14T14:30:28;2.60;;;2.28;;
20567;SDS011;10442;49.932;11.592;2024-02-14T14:32:57;1.40;;;1.30;;
20567;SDS011;10442;49.932;11.592;2024-02-14T14:35:25;1.85;;;1.40;;
20567;SDS011;10442;49.932;11.592;2024-02-14T14:37:53;1.40;;;1.30;;
20567;SDS011;10442;49.932;11.592;2024-02-14T14:40:22;1.70;;;1.60;;
20567;SDS011;10442;49.932;11.592;2024-02-14T14:42:50;2.53;;;1.77;;